Terminal Aerodrome Forecast
Issued by NWS

Home | Current Version | Previous Version | Text Only | Print | Product List | Glossary On
Versions: 1 2 3 4 5 6 7 8 9 10 11 12 13 14 15 16 17 18 19 20
000
FTUS41 KBOX 260210 AAA
TAFFMH
TAF AMD
KFMH 260210Z 2602/2624 35004KT P6SM FEW007
     FM261300 07007KT P6SM BKN025
     FM261500 08009KT P6SM BKN060
     FM261800 09009KT P6SM BKN030
     FM262000 09009KT P6SM OVC070=

USA.gov is the U.S. government's official web portal to all federal, state and local government web resources and services.